sensor_id;sensor_type;location;lat;lon;timestamp;pressure;altitude;pressure_sealevel;temperature;humidity
80137;BME280;69466;55.948;37.484;2023-10-09T00:00:34;97017.41;;;2.49;80.87
80137;BME280;69466;55.948;37.484;2023-10-09T00:03:06;97031.72;;;2.43;80.88
80137;BME280;69466;55.948;37.484;2023-10-09T00:05:33;97041.03;;;2.41;80.79
80137;BME280;69466;55.948;37.484;2023-10-09T00:08:13;97032.31;;;2.45;81.40
80137;BME280;69466;55.948;37.484;2023-10-09T00:10:48;97055.09;;;2.48;80.87
80137;BME280;69466;55.948;37.484;2023-10-09T00:13:20;97062.09;;;2.49;81.56
80137;BME280;69466;55.948;37.484;2023-10-09T00:15:48;97060.38;;;2.54;81.37
80137;BME280;69466;55.948;37.484;2023-10-09T00:18:19;97060.25;;;2.49;81.64
80137;BME280;69466;55.948;37.484;2023-10-09T00:20:54;97062.44;;;2.52;80.70
80137;BME280;69466;55.948;37.484;2023-10-09T00:23:21;97071.16;;;2.48;81.23
80137;BME280;69466;55.948;37.484;2023-10-09T00:25:51;97080.00;;;2.48;81.58
80137;BME280;69466;55.948;37.484;2023-10-09T00:28:53;97081.19;;;2.52;81.19
80137;BME280;69466;55.948;37.484;2023-10-09T00:31:20;97068.50;;;2.48;81.57
80137;BME280;69466;55.948;37.484;2023-10-09T00:34:02;97096.94;;;2.60;80.94
80137;BME280;69466;55.948;37.484;2023-10-09T00:36:31;97097.84;;;2.54;81.60
80137;BME280;69466;55.948;37.484;2023-10-09T00:38:59;97102.50;;;2.47;81.13
80137;BME280;69466;55.948;37.484;2023-10-09T00:41:37;97107.50;;;2.55;81.58
80137;BME280;69466;55.948;37.484;2023-10-09T00:44:07;97114.50;;;2.56;82.10
80137;BME280;69466;55.948;37.484;2023-10-09T00:46:34;97118.34;;;2.60;81.38
80137;BME280;69466;55.948;37.484;2023-10-09T00:49:01;97121.94;;;2.66;81.09
80137;BME280;69466;55.948;37.484;2023-10-09T00:51:29;97127.19;;;2.73;81.01
80137;BME280;69466;55.948;37.484;2023-10-09T00:54:02;97125.69;;;2.65;81.67
80137;BME280;69466;55.948;37.484;2023-10-09T00:56:33;97142.09;;;2.68;82.01
80137;BME280;69466;55.948;37.484;2023-10-09T00:59:13;97144.91;;;2.74;81.47
80137;BME280;69466;55.948;37.484;2023-10-09T01:01:42;97138.94;;;2.72;81.03
80137;BME280;69466;55.948;37.484;2023-10-09T01:04:31;97155.13;;;2.77;81.01
80137;BME280;69466;55.948;37.484;2023-10-09T01:07:04;97149.22;;;2.75;81.65
80137;BME280;69466;55.948;37.484;2023-10-09T01:09:38;97138.94;;;2.72;81.80
80137;BME280;69466;55.948;37.484;2023-10-09T01:12:08;97150.94;;;2.69;81.69
80137;BME280;69466;55.948;37.484;2023-10-09T01:14:43;97142.91;;;2.69;81.68
80137;BME280;69466;55.948;37.484;2023-10-09T01:17:09;97151.50;;;2.71;81.78
80137;BME280;69466;55.948;37.484;2023-10-09T01:19:38;97171.19;;;2.65;81.44
80137;BME280;69466;55.948;37.484;2023-10-09T01:22:04;97161.88;;;2.67;82.03
80137;BME280;69466;55.948;37.484;2023-10-09T01:24:39;97167.56;;;2.71;81.06
80137;BME280;69466;55.948;37.484;2023-10-09T01:27:06;97168.88;;;2.80;82.10
80137;BME280;69466;55.948;37.484;2023-10-09T01:29:42;97185.28;;;2.72;81.46
80137;BME280;69466;55.948;37.484;2023-10-09T01:32:10;97180.53;;;2.74;81.93
80137;BME280;69466;55.948;37.484;2023-10-09T01:34:46;97193.09;;;2.74;81.48
80137;BME280;69466;55.948;37.484;2023-10-09T01:37:19;97188.91;;;2.78;81.30
80137;BME280;69466;55.948;37.484;2023-10-09T01:39:50;97207.53;;;2.73;81.80
80137;BME280;69466;55.948;37.484;2023-10-09T01:42:20;97213.50;;;2.86;81.70
80137;BME280;69466;55.948;37.484;2023-10-09T01:44:53;97214.44;;;2.92;81.30
80137;BME280;69466;55.948;37.484;2023-10-09T01:47:19;97211.03;;;2.85;81.33
80137;BME280;69466;55.948;37.484;2023-10-09T01:49:48;97223.28;;;2.92;80.98
80137;BME280;69466;55.948;37.484;2023-10-09T01:52:18;97239.44;;;2.86;81.43
80137;BME280;69466;55.948;37.484;2023-10-09T01:54:50;97232.94;;;2.82;80.98
80137;BME280;69466;55.948;37.484;2023-10-09T01:57:18;97237.47;;;2.81;81.59
80137;BME280;69466;55.948;37.484;2023-10-09T01:59:52;97241.31;;;2.85;81.67
80137;BME280;69466;55.948;37.484;2023-10-09T02:02:22;97253.19;;;2.89;80.61
80137;BME280;69466;55.948;37.484;2023-10-09T02:05:00;97262.66;;;2.92;80.17
80137;BME280;69466;55.948;37.484;2023-10-09T02:07:37;97266.59;;;2.89;80.44
80137;BME280;69466;55.948;37.484;2023-10-09T02:10:23;97267.53;;;2.95;80.23
80137;BME280;69466;55.948;37.484;2023-10-09T02:13:03;97273.94;;;2.94;81.24
80137;BME280;69466;55.948;37.484;2023-10-09T02:15:44;97275.94;;;2.98;80.24
80137;BME280;69466;55.948;37.484;2023-10-09T02:18:20;97285.59;;;2.99;81.19
80137;BME280;69466;55.948;37.484;2023-10-09T02:23:38;97293.31;;;3.07;79.90
80137;BME280;69466;55.948;37.484;2023-10-09T02:26:13;97289.47;;;3.03;80.91
80137;BME280;69466;55.948;37.484;2023-10-09T02:28:55;97282.94;;;2.99;79.86
80137;BME280;69466;55.948;37.484;2023-10-09T02:31:27;97296.78;;;2.96;80.41
80137;BME280;69466;55.948;37.484;2023-10-09T02:34:01;97305.66;;;2.97;80.12
80137;BME280;69466;55.948;37.484;2023-10-09T02:36:37;97311.34;;;3.00;80.50
80137;BME280;69466;55.948;37.484;2023-10-09T02:39:14;97302.56;;;2.93;81.02
80137;BME280;69466;55.948;37.484;2023-10-09T02:41:53;97327.44;;;3.00;81.05
80137;BME280;69466;55.948;37.484;2023-10-09T02:44:26;97316.94;;;2.99;81.67
80137;BME280;69466;55.948;37.484;2023-10-09T02:46:57;97331.75;;;3.01;81.07
80137;BME280;69466;55.948;37.484;2023-10-09T02:49:31;97334.84;;;2.98;81.58
80137;BME280;69466;55.948;37.484;2023-10-09T02:51:57;97337.69;;;3.03;81.58
80137;BME280;69466;55.948;37.484;2023-10-09T02:54:23;97337.94;;;3.02;80.66
80137;BME280;69466;55.948;37.484;2023-10-09T02:56:51;97340.81;;;3.00;80.51
80137;BME280;69466;55.948;37.484;2023-10-09T02:59:48;97345.72;;;3.03;80.43
80137;BME280;69466;55.948;37.484;2023-10-09T03:02:19;97347.56;;;3.03;80.22
80137;BME280;69466;55.948;37.484;2023-10-09T03:04:45;97349.34;;;3.09;80.66
80137;BME280;69466;55.948;37.484;2023-10-09T03:07:11;97349.56;;;3.07;80.38
80137;BME280;69466;55.948;37.484;2023-10-09T03:09:39;97352.72;;;3.04;79.97
80137;BME280;69466;55.948;37.484;2023-10-09T03:12:06;97364.25;;;3.05;80.53
80137;BME280;69466;55.948;37.484;2023-10-09T03:14:37;97369.53;;;3.11;80.38
80137;BME280;69466;55.948;37.484;2023-10-09T03:17:07;97369.75;;;3.10;nan
80137;BME280;69466;55.948;37.484;2023-10-09T03:19:40;97378.28;;;3.19;80.11
80137;BME280;69466;55.948;37.484;2023-10-09T03:22:06;97382.31;;;3.09;80.31
80137;BME280;69466;55.948;37.484;2023-10-09T03:24:39;97385.81;;;3.10;80.59
80137;BME280;69466;55.948;37.484;2023-10-09T03:27:08;97389.75;;;3.07;79.85
80137;BME280;69466;55.948;37.484;2023-10-09T03:29:34;97390.44;;;3.03;79.48
80137;BME280;69466;55.948;37.484;2023-10-09T03:32:00;97388.56;;;3.03;80.27
80137;BME280;69466;55.948;37.484;2023-10-09T03:34:26;97394.69;;;3.10;80.49
80137;BME280;69466;55.948;37.484;2023-10-09T03:36:53;97398.72;;;3.01;80.02
80137;BME280;69466;55.948;37.484;2023-10-09T03:39:40;97408.41;;;3.02;79.83
80137;BME280;69466;55.948;37.484;2023-10-09T03:42:07;97411.06;;;3.02;79.70
80137;BME280;69466;55.948;37.484;2023-10-09T03:44:38;97406.75;;;3.01;79.85
80137;BME280;69466;55.948;37.484;2023-10-09T03:47:10;97422.97;;;3.06;80.13
80137;BME280;69466;55.948;37.484;2023-10-09T03:49:36;97414.13;;;3.06;80.13
80137;BME280;69466;55.948;37.484;2023-10-09T03:52:05;97427.38;;;3.01;80.35
80137;BME280;69466;55.948;37.484;2023-10-09T03:54:35;97434.13;;;3.03;79.76
80137;BME280;69466;55.948;37.484;2023-10-09T03:57:01;97438.66;;;3.03;79.64
80137;BME280;69466;55.948;37.484;2023-10-09T03:59:28;97426.41;;;2.95;80.34
80137;BME280;69466;55.948;37.484;2023-10-09T04:01:56;97438.66;;;3.03;80.76
80137;BME280;69466;55.948;37.484;2023-10-09T04:04:26;97442.75;;;3.05;80.64
80137;BME280;69466;55.948;37.484;2023-10-09T04:06:54;97439.88;;;3.07;80.73
80137;BME280;69466;55.948;37.484;2023-10-09T04:09:20;97448.13;;;3.05;80.09
80137;BME280;69466;55.948;37.484;2023-10-09T04:11:50;97453.63;;;3.10;79.30
80137;BME280;69466;55.948;37.484;2023-10-09T04:14:29;97446.84;;;3.08;80.96
80137;BME280;69466;55.948;37.484;2023-10-09T04:16:59;97465.75;;;3.13;80.37
80137;BME280;69466;55.948;37.484;2023-10-09T04:19:51;97460.75;;;3.17;80.12
80137;BME280;69466;55.948;37.484;2023-10-09T04:22:36;97470.75;;;3.09;79.96
80137;BME280;69466;55.948;37.484;2023-10-09T04:25:08;97470.53;;;3.11;80.34
80137;BME280;69466;55.948;37.484;2023-10-09T04:27:41;97480.63;;;3.09;80.14
80137;BME280;69466;55.948;37.484;2023-10-09T04:30:07;97472.97;;;3.12;80.08
80137;BME280;69466;55.948;37.484;2023-10-09T04:32:38;97481.00;;;3.12;80.26
80137;BME280;69466;55.948;37.484;2023-10-09T04:35:05;97475.63;;;3.12;79.51
80137;BME280;69466;55.948;37.484;2023-10-09T04:37:50;97491.72;;;3.12;78.96
80137;BME280;69466;55.948;37.484;2023-10-09T04:40:30;97499.75;;;3.12;79.20
80137;BME280;69466;55.948;37.484;2023-10-09T04:43:17;97492.53;;;3.13;80.75
80137;BME280;69466;55.948;37.484;2023-10-09T04:45:47;97500.94;;;3.17;79.77
80137;BME280;69466;55.948;37.484;2023-10-09T04:48:31;97500.56;;;3.13;79.51
80137;BME280;69466;55.948;37.484;2023-10-09T04:51:09;97507.38;;;3.16;80.00
80137;BME280;69466;55.948;37.484;2023-10-09T04:53:48;97511.91;;;3.15;79.45
80137;BME280;69466;55.948;37.484;2023-10-09T04:56:26;97511.75;;;3.10;80.09
80137;BME280;69466;55.948;37.484;2023-10-09T04:58:57;97521.94;;;3.20;79.63
80137;BME280;69466;55.948;37.484;2023-10-09T05:01:30;97520.66;;;3.22;79.66
80137;BME280;69466;55.948;37.484;2023-10-09T05:04:03;97525.06;;;3.17;80.15
80137;BME280;69466;55.948;37.484;2023-10-09T05:06:49;97530.66;;;3.15;79.40
80137;BME280;69466;55.948;37.484;2023-10-09T05:09:22;97529.75;;;3.21;79.57
80137;BME280;69466;55.948;37.484;2023-10-09T05:11:48;97529.16;;;3.19;80.07
80137;BME280;69466;55.948;37.484;2023-10-09T05:14:17;97526.84;;;3.23;80.05
80137;BME280;69466;55.948;37.484;2023-10-09T05:16:45;97539.00;;;3.25;79.23
80137;BME280;69466;55.948;37.484;2023-10-09T05:19:21;97545.41;;;3.24;79.40
80137;BME280;69466;55.948;37.484;2023-10-09T05:22:11;97548.44;;;3.28;79.76
80137;BME280;69466;55.948;37.484;2023-10-09T05:24:57;97549.25;;;3.28;79.15
80137;BME280;69466;55.948;37.484;2023-10-09T05:27:23;97558.13;;;3.29;79.75
80137;BME280;69466;55.948;37.484;2023-10-09T05:30:08;97564.66;;;3.33;79.69
80137;BME280;69466;55.948;37.484;2023-10-09T05:32:56;97557.81;;;3.37;79.37
80137;BME280;69466;55.948;37.484;2023-10-09T05:35:44;97561.53;;;3.36;79.24
80137;BME280;69466;55.948;37.484;2023-10-09T05:38:30;97571.44;;;3.35;79.30
80137;BME280;69466;55.948;37.484;2023-10-09T05:40:57;97571.44;;;3.35;79.23
80137;BME280;69466;55.948;37.484;2023-10-09T05:43:42;97585.50;;;3.49;78.96
80137;BME280;69466;55.948;37.484;2023-10-09T05:46:27;97599.50;;;3.51;79.20
80137;BME280;69466;55.948;37.484;2023-10-09T05:49:01;97602.94;;;3.58;79.33
80137;BME280;69466;55.948;37.484;2023-10-09T05:51:35;97602.50;;;3.61;79.58
80137;BME280;69466;55.948;37.484;2023-10-09T05:54:08;97607.41;;;3.64;78.29
80137;BME280;69466;55.948;37.484;2023-10-09T05:56:52;97596.00;;;3.50;79.30
80137;BME280;69466;55.948;37.484;2023-10-09T05:59:56;97608.06;;;3.60;78.60
80137;BME280;69466;55.948;37.484;2023-10-09T06:02:41;97605.03;;;3.56;79.12
80137;BME280;69466;55.948;37.484;2023-10-09T06:05:25;97608.91;;;3.60;78.87
80137;BME280;69466;55.948;37.484;2023-10-09T06:08:06;97612.75;;;3.64;79.36
80137;BME280;69466;55.948;37.484;2023-10-09T06:10:33;97616.41;;;3.70;78.90
80137;BME280;69466;55.948;37.484;2023-10-09T06:13:07;97617.16;;;3.77;78.31
80137;BME280;69466;55.948;37.484;2023-10-09T06:15:51;97628.69;;;3.77;79.05
80137;BME280;69466;55.948;37.484;2023-10-09T06:18:35;97630.84;;;3.87;78.88
80137;BME280;69466;55.948;37.484;2023-10-09T06:21:01;97622.13;;;3.91;78.84
80137;BME280;69466;55.948;37.484;2023-10-09T06:23:56;97631.13;;;3.97;78.84
80137;BME280;69466;55.948;37.484;2023-10-09T06:26:35;97644.38;;;4.10;78.56
80137;BME280;69466;55.948;37.484;2023-10-09T06:29:01;97637.28;;;4.16;77.77
80137;BME280;69466;55.948;37.484;2023-10-09T06:31:56;97645.34;;;4.16;77.93
80137;BME280;69466;55.948;37.484;2023-10-09T06:34:31;97646.66;;;4.25;77.35
80137;BME280;69466;55.948;37.484;2023-10-09T06:37:01;97646.84;;;4.41;77.86
80137;BME280;69466;55.948;37.484;2023-10-09T06:39:43;97653.66;;;4.56;76.72
80137;BME280;69466;55.948;37.484;2023-10-09T06:42:23;97647.72;;;4.65;76.69
80137;BME280;69466;55.948;37.484;2023-10-09T06:45:02;97661.50;;;4.57;76.33
80137;BME280;69466;55.948;37.484;2023-10-09T06:47:49;97661.63;;;4.62;75.85
80137;BME280;69466;55.948;37.484;2023-10-09T06:50:35;97665.63;;;4.71;76.18
80137;BME280;69466;55.948;37.484;2023-10-09T06:53:20;97672.13;;;4.64;75.79
80137;BME280;69466;55.948;37.484;2023-10-09T06:55:46;97671.19;;;4.58;75.46
80137;BME280;69466;55.948;37.484;2023-10-09T06:58:19;97687.13;;;4.71;76.05
80137;BME280;69466;55.948;37.484;2023-10-09T07:00:49;97680.66;;;4.61;76.04
80137;BME280;69466;55.948;37.484;2023-10-09T07:03:29;97697.78;;;4.48;76.05
80137;BME280;69466;55.948;37.484;2023-10-09T07:06:09;97693.38;;;4.35;75.79
80137;BME280;69466;55.948;37.484;2023-10-09T07:08:54;97702.25;;;4.36;76.31
80137;BME280;69466;55.948;37.484;2023-10-09T07:11:42;97712.56;;;4.39;75.95
80137;BME280;69466;55.948;37.484;2023-10-09T07:14:21;97711.13;;;4.36;76.36
80137;BME280;69466;55.948;37.484;2023-10-09T07:17:06;97722.19;;;4.28;76.47
80137;BME280;69466;55.948;37.484;2023-10-09T07:19:43;97722.56;;;4.32;76.16
80137;BME280;69466;55.948;37.484;2023-10-09T07:22:11;97733.66;;;4.35;76.17
80137;BME280;69466;55.948;37.484;2023-10-09T07:27:31;97732.75;;;4.41;76.01
80137;BME280;69466;55.948;37.484;2023-10-09T07:30:15;97746.03;;;4.36;75.79
80137;BME280;69466;55.948;37.484;2023-10-09T07:33:07;97736.59;;;4.34;76.99
80137;BME280;69466;55.948;37.484;2023-10-09T07:35:34;97745.91;;;4.31;77.13
80137;BME280;69466;55.948;37.484;2023-10-09T07:38:13;97752.16;;;4.43;76.44
80137;BME280;69466;55.948;37.484;2023-10-09T07:40:51;97757.28;;;4.45;77.40
80137;BME280;69466;55.948;37.484;2023-10-09T07:43:34;97768.28;;;4.43;76.52
80137;BME280;69466;55.948;37.484;2023-10-09T07:46:18;97765.66;;;4.37;76.97
80137;BME280;69466;55.948;37.484;2023-10-09T07:49:10;97766.28;;;4.39;77.05
80137;BME280;69466;55.948;37.484;2023-10-09T07:51:39;97772.00;;;4.42;77.29
80137;BME280;69466;55.948;37.484;2023-10-09T07:54:10;97775.28;;;4.44;77.98
80137;BME280;69466;55.948;37.484;2023-10-09T07:56:42;97775.94;;;4.40;77.56
80137;BME280;69466;55.948;37.484;2023-10-09T07:59:15;97774.38;;;4.51;77.69
80137;BME280;69466;55.948;37.484;2023-10-09T08:01:53;97787.28;;;4.42;76.97
80137;BME280;69466;55.948;37.484;2023-10-09T08:04:29;97782.38;;;4.39;76.98
80137;BME280;69466;55.948;37.484;2023-10-09T08:07:10;97797.81;;;4.43;76.73
80137;BME280;69466;55.948;37.484;2023-10-09T08:09:45;97798.31;;;4.52;77.72
80137;BME280;69466;55.948;37.484;2023-10-09T08:12:15;97803.69;;;4.52;77.02
80137;BME280;69466;55.948;37.484;2023-10-09T08:15:04;97799.06;;;4.59;76.53
80137;BME280;69466;55.948;37.484;2023-10-09T08:17:47;97806.06;;;4.60;76.96
80137;BME280;69466;55.948;37.484;2023-10-09T08:20:27;97808.19;;;4.58;76.38
80137;BME280;69466;55.948;37.484;2023-10-09T08:22:55;97823.38;;;4.64;76.98
80137;BME280;69466;55.948;37.484;2023-10-09T08:25:26;97822.66;;;4.57;77.12
80137;BME280;69466;55.948;37.484;2023-10-09T08:27:53;97818.38;;;4.68;76.57
80137;BME280;69466;55.948;37.484;2023-10-09T08:30:21;97817.94;;;4.71;76.38
80137;BME280;69466;55.948;37.484;2023-10-09T08:32:48;97829.66;;;4.76;76.10
80137;BME280;69466;55.948;37.484;2023-10-09T08:35:36;97833.28;;;4.82;75.42
80137;BME280;69466;55.948;37.484;2023-10-09T08:38:15;97838.19;;;5.03;75.37
80137;BME280;69466;55.948;37.484;2023-10-09T08:40:43;97831.38;;;5.01;75.12
80137;BME280;69466;55.948;37.484;2023-10-09T08:43:15;97842.22;;;5.24;75.74
80137;BME280;69466;55.948;37.484;2023-10-09T08:45:56;97854.41;;;5.38;74.59
80137;BME280;69466;55.948;37.484;2023-10-09T08:48:30;97859.22;;;5.36;74.55
80137;BME280;69466;55.948;37.484;2023-10-09T08:50:56;97852.56;;;5.50;74.53
80137;BME280;69466;55.948;37.484;2023-10-09T08:53:24;97849.44;;;5.53;74.04
80137;BME280;69466;55.948;37.484;2023-10-09T08:55:50;97851.84;;;5.31;73.93
80137;BME280;69466;55.948;37.484;2023-10-09T08:58:18;97860.84;;;5.37;74.16
80137;BME280;69466;55.948;37.484;2023-10-09T09:00:47;97862.97;;;5.47;73.50
80137;BME280;69466;55.948;37.484;2023-10-09T09:03:18;97859.25;;;5.59;74.07
80137;BME280;69466;55.948;37.484;2023-10-09T09:05:47;97872.97;;;5.58;73.70
80137;BME280;69466;55.948;37.484;2023-10-09T09:08:28;97868.06;;;5.66;73.13
80137;BME280;69466;55.948;37.484;2023-10-09T09:10:58;97877.19;;;5.65;72.74
80137;BME280;69466;55.948;37.484;2023-10-09T09:13:41;97878.34;;;5.58;72.91
80137;BME280;69466;55.948;37.484;2023-10-09T09:16:19;97888.97;;;5.53;72.95
80137;BME280;69466;55.948;37.484;2023-10-09T09:21:18;97900.88;;;5.45;73.82
80137;BME280;69466;55.948;37.484;2023-10-09T09:23:59;97902.78;;;5.56;73.80
80137;BME280;69466;55.948;37.484;2023-10-09T09:26:36;97907.69;;;5.59;73.85
80137;BME280;69466;55.948;37.484;2023-10-09T09:29:06;97901.38;;;5.54;73.57
80137;BME280;69466;55.948;37.484;2023-10-09T09:31:33;97901.25;;;5.49;73.82
80137;BME280;69466;55.948;37.484;2023-10-09T09:34:08;97903.78;;;5.44;73.58
80137;BME280;69466;55.948;37.484;2023-10-09T09:36:54;97909.53;;;5.47;73.89
80137;BME280;69466;55.948;37.484;2023-10-09T09:39:22;97914.56;;;5.44;73.82
80137;BME280;69466;55.948;37.484;2023-10-09T09:42:02;97906.47;;;5.44;73.56
80137;BME280;69466;55.948;37.484;2023-10-09T09:44:39;97909.38;;;5.42;73.58
80137;BME280;69466;55.948;37.484;2023-10-09T09:47:15;97919.94;;;5.44;74.05
80137;BME280;69466;55.948;37.484;2023-10-09T09:49:51;97922.97;;;5.47;73.73
80137;BME280;69466;55.948;37.484;2023-10-09T09:52:28;97909.88;;;5.51;73.89
80137;BME280;69466;55.948;37.484;2023-10-09T09:54:55;97918.34;;;5.54;73.81
80137;BME280;69466;55.948;37.484;2023-10-09T09:57:23;97928.50;;;5.52;73.15
80137;BME280;69466;55.948;37.484;2023-10-09T09:59:53;97923.63;;;5.61;73.25
80137;BME280;69466;55.948;37.484;2023-10-09T10:02:32;97929.00;;;5.61;73.01
80137;BME280;69466;55.948;37.484;2023-10-09T10:05:04;97933.00;;;5.70;72.54
80137;BME280;69466;55.948;37.484;2023-10-09T10:07:33;97935.91;;;5.68;72.13
80137;BME280;69466;55.948;37.484;2023-10-09T10:12:59;97938.78;;;5.55;73.14
80137;BME280;69466;55.948;37.484;2023-10-09T10:16:20;97941.94;;;5.52;73.27
80137;BME280;69466;55.948;37.484;2023-10-09T10:19:06;97949.06;;;5.47;73.16
80137;BME280;69466;55.948;37.484;2023-10-09T10:21:44;97944.72;;;5.46;73.13
80137;BME280;69466;55.948;37.484;2023-10-09T10:27:26;97969.59;;;5.41;73.79
80137;BME280;69466;55.948;37.484;2023-10-09T10:32:55;97960.53;;;5.24;74.16
80137;BME280;69466;55.948;37.484;2023-10-09T10:35:36;97959.69;;;5.23;73.65
80137;BME280;69466;55.948;37.484;2023-10-09T10:38:32;97965.25;;;5.10;73.98
80137;BME280;69466;55.948;37.484;2023-10-09T10:41:19;97963.22;;;5.06;74.51
80137;BME280;69466;55.948;37.484;2023-10-09T10:43:48;97966.06;;;5.11;74.33
80137;BME280;69466;55.948;37.484;2023-10-09T10:46:15;97974.75;;;5.13;74.84
80137;BME280;69466;55.948;37.484;2023-10-09T10:49:01;97976.31;;;5.02;75.18
80137;BME280;69466;55.948;37.484;2023-10-09T10:51:50;97971.75;;;5.03;74.18
80137;BME280;69466;55.948;37.484;2023-10-09T10:54:41;97979.03;;;5.14;74.16
80137;BME280;69466;55.948;37.484;2023-10-09T10:57:22;97980.91;;;5.13;73.75
80137;BME280;69466;55.948;37.484;2023-10-09T10:59:57;97991.09;;;5.11;73.68
80137;BME280;69466;55.948;37.484;2023-10-09T11:02:39;97989.38;;;5.17;73.66
80137;BME280;69466;55.948;37.484;2023-10-09T11:05:07;97988.16;;;5.31;73.35
80137;BME280;69466;55.948;37.484;2023-10-09T11:07:50;97983.38;;;5.33;73.13
80137;BME280;69466;55.948;37.484;2023-10-09T11:10:24;97999.88;;;5.36;72.71
80137;BME280;69466;55.948;37.484;2023-10-09T11:12:54;98000.53;;;5.32;73.05
80137;BME280;69466;55.948;37.484;2023-10-09T11:15:37;98003.63;;;5.35;72.48
80137;BME280;69466;55.948;37.484;2023-10-09T11:18:11;98010.09;;;5.46;72.69
80137;BME280;69466;55.948;37.484;2023-10-09T11:20:55;98014.28;;;5.42;71.91
80137;BME280;69466;55.948;37.484;2023-10-09T11:23:44;98013.56;;;5.35;71.75
80137;BME280;69466;55.948;37.484;2023-10-09T11:26:33;98022.72;;;5.46;71.68
80137;BME280;69466;55.948;37.484;2023-10-09T11:29:08;98030.28;;;5.37;72.04
80137;BME280;69466;55.948;37.484;2023-10-09T11:32:05;98041.50;;;5.34;73.10
80137;BME280;69466;55.948;37.484;2023-10-09T11:34:33;98029.53;;;5.30;73.64
80137;BME280;69466;55.948;37.484;2023-10-09T11:39:31;98049.72;;;5.39;73.76
80137;BME280;69466;55.948;37.484;2023-10-09T11:42:02;98043.19;;;5.47;73.22
80137;BME280;69466;55.948;37.484;2023-10-09T11:44:39;98045.66;;;5.48;73.07
80137;BME280;69466;55.948;37.484;2023-10-09T11:47:08;98048.22;;;5.43;72.79
80137;BME280;69466;55.948;37.484;2023-10-09T11:50:01;98052.25;;;5.52;72.67
80137;BME280;69466;55.948;37.484;2023-10-09T11:52:32;98057.00;;;5.50;72.82
80137;BME280;69466;55.948;37.484;2023-10-09T11:55:02;98065.84;;;5.57;72.45
80137;BME280;69466;55.948;37.484;2023-10-09T11:57:30;98074.22;;;5.49;72.52
80137;BME280;69466;55.948;37.484;2023-10-09T11:59:57;98061.44;;;5.45;72.74
80137;BME280;69466;55.948;37.484;2023-10-09T12:02:26;98070.09;;;5.47;73.36
80137;BME280;69466;55.948;37.484;2023-10-09T12:04:52;98074.59;;;5.53;72.69
80137;BME280;69466;55.948;37.484;2023-10-09T12:07:25;98068.84;;;5.49;72.79
80137;BME280;69466;55.948;37.484;2023-10-09T12:09:52;98076.66;;;5.51;72.59
80137;BME280;69466;55.948;37.484;2023-10-09T12:12:22;98082.16;;;5.44;73.37
80137;BME280;69466;55.948;37.484;2023-10-09T12:14:53;98094.56;;;5.45;73.62
80137;BME280;69466;55.948;37.484;2023-10-09T12:17:21;98088.56;;;5.43;73.44
80137;BME280;69466;55.948;37.484;2023-10-09T12:19:51;98090.44;;;5.43;74.01
80137;BME280;69466;55.948;37.484;2023-10-09T12:22:17;98098.44;;;5.31;73.66
80137;BME280;69466;55.948;37.484;2023-10-09T12:24:43;98097.00;;;5.28;73.67
80137;BME280;69466;55.948;37.484;2023-10-09T12:27:09;98106.50;;;5.31;74.00
80137;BME280;69466;55.948;37.484;2023-10-09T12:29:38;98105.72;;;5.24;74.46
80137;BME280;69466;55.948;37.484;2023-10-09T12:32:10;98109.56;;;5.34;73.33
80137;BME280;69466;55.948;37.484;2023-10-09T12:34:37;98103.28;;;5.22;73.62
80137;BME280;69466;55.948;37.484;2023-10-09T12:37:04;98121.13;;;5.35;72.55
80137;BME280;69466;55.948;37.484;2023-10-09T12:39:32;98116.97;;;5.39;72.68
80137;BME280;69466;55.948;37.484;2023-10-09T12:42:09;98127.41;;;5.29;72.32
80137;BME280;69466;55.948;37.484;2023-10-09T12:44:37;98134.47;;;5.23;73.04
80137;BME280;69466;55.948;37.484;2023-10-09T12:47:07;98145.97;;;5.12;73.54
80137;BME280;69466;55.948;37.484;2023-10-09T12:49:33;98140.56;;;4.94;74.09
80137;BME280;69466;55.948;37.484;2023-10-09T12:51:59;98140.13;;;4.90;74.66
80137;BME280;69466;55.948;37.484;2023-10-09T12:54:25;98144.06;;;4.95;75.64
80137;BME280;69466;55.948;37.484;2023-10-09T12:56:55;98139.72;;;4.94;74.98
80137;BME280;69466;55.948;37.484;2023-10-09T12:59:22;98144.31;;;4.86;74.97
80137;BME280;69466;55.948;37.484;2023-10-09T13:01:50;98141.38;;;4.95;75.32
80137;BME280;69466;55.948;37.484;2023-10-09T13:04:24;98145.25;;;4.99;75.63
80137;BME280;69466;55.948;37.484;2023-10-09T13:06:57;98137.72;;;4.82;75.05
80137;BME280;69466;55.948;37.484;2023-10-09T13:09:29;98160.59;;;4.91;76.05
80137;BME280;69466;55.948;37.484;2023-10-09T13:12:30;98160.69;;;4.85;75.58
80137;BME280;69466;55.948;37.484;2023-10-09T13:14:56;98157.56;;;4.81;75.96
80137;BME280;69466;55.948;37.484;2023-10-09T13:17:22;98162.38;;;4.79;76.16
80137;BME280;69466;55.948;37.484;2023-10-09T13:19:53;98165.91;;;4.73;75.21
80137;BME280;69466;55.948;37.484;2023-10-09T13:22:20;98171.09;;;4.75;74.94
80137;BME280;69466;55.948;37.484;2023-10-09T13:24:48;98190.53;;;4.70;75.14
80137;BME280;69466;55.948;37.484;2023-10-09T13:27:16;98185.81;;;4.66;75.64
80137;BME280;69466;55.948;37.484;2023-10-09T13:29:47;98184.63;;;4.55;76.43
80137;BME280;69466;55.948;37.484;2023-10-09T13:32:13;98183.50;;;4.38;76.45
80137;BME280;69466;55.948;37.484;2023-10-09T13:34:40;98198.75;;;4.44;77.19
80137;BME280;69466;55.948;37.484;2023-10-09T13:37:14;98189.44;;;4.46;76.78
80137;BME280;69466;55.948;37.484;2023-10-09T13:39:47;98203.72;;;4.40;77.09
80137;BME280;69466;55.948;37.484;2023-10-09T13:42:20;98201.88;;;4.41;76.86
80137;BME280;69466;55.948;37.484;2023-10-09T13:44:50;98215.28;;;4.41;76.97
80137;BME280;69466;55.948;37.484;2023-10-09T13:47:19;98221.50;;;4.41;76.92
80137;BME280;69466;55.948;37.484;2023-10-09T13:49:49;98219.81;;;4.47;76.77
80137;BME280;69466;55.948;37.484;2023-10-09T13:52:16;98216.94;;;4.42;76.80
80137;BME280;69466;55.948;37.484;2023-10-09T13:54:45;98232.22;;;4.41;77.28
80137;BME280;69466;55.948;37.484;2023-10-09T13:57:15;98231.19;;;4.42;77.42